sensor_id;sensor_type;location;lat;lon;timestamp;P1;durP1;ratioP1;P2;durP2;ratioP2
4885;SDS011;2457;51.788;6.136;2024-03-08T00:00:19;13.73;;;7.17;;
4885;SDS011;2457;51.788;6.136;2024-03-08T00:02:46;18.87;;;8.80;;
4885;SDS011;2457;51.788;6.136;2024-03-08T00:05:14;13.13;;;8.43;;
4885;SDS011;2457;51.788;6.136;2024-03-08T00:07:41;14.27;;;8.60;;
4885;SDS011;2457;51.788;6.136;2024-03-08T00:10:10;16.57;;;9.13;;
4885;SDS011;2457;51.788;6.136;2024-03-08T00:12:38;13.67;;;8.43;;
4885;SDS011;2457;51.788;6.136;2024-03-08T00:15:08;15.57;;;8.23;;
4885;SDS011;2457;51.788;6.136;2024-03-08T00:17:36;11.57;;;6.93;;
4885;SDS011;2457;51.788;6.136;2024-03-08T00:20:04;16.13;;;9.03;;
4885;SDS011;2457;51.788;6.136;2024-03-08T00:22:38;14.80;;;8.13;;
4885;SDS011;2457;51.788;6.136;2024-03-08T00:25:02;12.20;;;7.90;;
4885;SDS011;2457;51.788;6.136;2024-03-08T00:27:30;14.63;;;8.07;;
4885;SDS011;2457;51.788;6.136;2024-03-08T00:29:57;12.23;;;7.37;;
4885;SDS011;2457;51.788;6.136;2024-03-08T00:32:25;13.70;;;7.57;;
4885;SDS011;2457;51.788;6.136;2024-03-08T00:34:53;13.77;;;7.53;;
4885;SDS011;2457;51.788;6.136;2024-03-08T00:37:21;15.97;;;8.77;;
4885;SDS011;2457;51.788;6.136;2024-03-08T00:39:49;11.40;;;7.17;;
4885;SDS011;2457;51.788;6.136;2024-03-08T00:42:16;15.53;;;8.57;;
4885;SDS011;2457;51.788;6.136;2024-03-08T00:44:44;21.87;;;9.17;;
4885;SDS011;2457;51.788;6.136;2024-03-08T00:47:11;16.07;;;7.93;;
4885;SDS011;2457;51.788;6.136;2024-03-08T00:49:40;14.60;;;8.00;;
4885;SDS011;2457;51.788;6.136;2024-03-08T00:52:08;14.80;;;8.50;;
4885;SDS011;2457;51.788;6.136;2024-03-08T00:54:35;14.20;;;8.40;;
4885;SDS011;2457;51.788;6.136;2024-03-08T00:57:03;14.17;;;8.10;;
4885;SDS011;2457;51.788;6.136;2024-03-08T00:59:30;17.30;;;8.07;;
4885;SDS011;2457;51.788;6.136;2024-03-08T01:01:59;12.60;;;8.03;;
4885;SDS011;2457;51.788;6.136;2024-03-08T01:04:26;14.23;;;7.73;;
4885;SDS011;2457;51.788;6.136;2024-03-08T01:06:56;20.73;;;8.07;;
4885;SDS011;2457;51.788;6.136;2024-03-08T01:09:23;13.73;;;8.07;;
4885;SDS011;2457;51.788;6.136;2024-03-08T01:11:51;13.07;;;7.70;;
4885;SDS011;2457;51.788;6.136;2024-03-08T01:14:19;15.87;;;8.03;;
4885;SDS011;2457;51.788;6.136;2024-03-08T01:16:48;15.30;;;8.40;;
4885;SDS011;2457;51.788;6.136;2024-03-08T01:19:15;15.80;;;8.70;;
4885;SDS011;2457;51.788;6.136;2024-03-08T01:21:43;17.20;;;8.00;;
4885;SDS011;2457;51.788;6.136;2024-03-08T01:24:11;14.70;;;7.33;;
4885;SDS011;2457;51.788;6.136;2024-03-08T01:26:38;12.20;;;7.83;;
4885;SDS011;2457;51.788;6.136;2024-03-08T01:29:05;14.33;;;7.53;;
4885;SDS011;2457;51.788;6.136;2024-03-08T01:31:34;17.20;;;8.43;;
4885;SDS011;2457;51.788;6.136;2024-03-08T01:34:02;12.77;;;7.90;;
4885;SDS011;2457;51.788;6.136;2024-03-08T01:36:30;13.20;;;8.33;;
4885;SDS011;2457;51.788;6.136;2024-03-08T01:38:57;16.80;;;9.00;;
4885;SDS011;2457;51.788;6.136;2024-03-08T01:41:24;15.60;;;9.17;;
4885;SDS011;2457;51.788;6.136;2024-03-08T01:43:51;11.03;;;7.27;;
4885;SDS011;2457;51.788;6.136;2024-03-08T01:46:19;13.73;;;8.10;;
4885;SDS011;2457;51.788;6.136;2024-03-08T01:48:49;14.87;;;8.80;;
4885;SDS011;2457;51.788;6.136;2024-03-08T01:51:17;13.70;;;8.20;;
4885;SDS011;2457;51.788;6.136;2024-03-08T01:53:44;13.10;;;8.70;;
4885;SDS011;2457;51.788;6.136;2024-03-08T01:56:13;12.40;;;7.87;;
4885;SDS011;2457;51.788;6.136;2024-03-08T01:58:41;19.40;;;9.10;;
4885;SDS011;2457;51.788;6.136;2024-03-08T02:01:11;17.83;;;9.13;;
4885;SDS011;2457;51.788;6.136;2024-03-08T02:03:41;15.20;;;9.10;;
4885;SDS011;2457;51.788;6.136;2024-03-08T02:06:12;15.27;;;9.27;;
4885;SDS011;2457;51.788;6.136;2024-03-08T02:08:46;14.37;;;8.87;;
4885;SDS011;2457;51.788;6.136;2024-03-08T02:11:10;14.37;;;8.30;;
4885;SDS011;2457;51.788;6.136;2024-03-08T02:13:38;13.60;;;8.30;;
4885;SDS011;2457;51.788;6.136;2024-03-08T02:16:05;14.07;;;8.30;;
4885;SDS011;2457;51.788;6.136;2024-03-08T02:18:34;13.50;;;8.67;;
4885;SDS011;2457;51.788;6.136;2024-03-08T02:21:02;14.30;;;9.20;;
4885;SDS011;2457;51.788;6.136;2024-03-08T02:23:30;12.80;;;8.47;;
4885;SDS011;2457;51.788;6.136;2024-03-08T02:25:57;15.30;;;8.80;;
4885;SDS011;2457;51.788;6.136;2024-03-08T02:28:24;17.00;;;9.30;;
4885;SDS011;2457;51.788;6.136;2024-03-08T02:30:52;18.77;;;10.00;;
4885;SDS011;2457;51.788;6.136;2024-03-08T02:33:22;15.73;;;9.20;;
4885;SDS011;2457;51.788;6.136;2024-03-08T02:35:50;15.40;;;9.47;;
4885;SDS011;2457;51.788;6.136;2024-03-08T02:38:18;17.47;;;9.70;;
4885;SDS011;2457;51.788;6.136;2024-03-08T02:40:46;14.50;;;8.73;;
4885;SDS011;2457;51.788;6.136;2024-03-08T02:43:14;13.07;;;8.60;;
4885;SDS011;2457;51.788;6.136;2024-03-08T02:45:42;17.60;;;9.83;;
4885;SDS011;2457;51.788;6.136;2024-03-08T02:48:10;16.63;;;9.90;;
4885;SDS011;2457;51.788;6.136;2024-03-08T02:50:38;15.20;;;8.80;;
4885;SDS011;2457;51.788;6.136;2024-03-08T02:53:09;14.60;;;9.27;;
4885;SDS011;2457;51.788;6.136;2024-03-08T02:55:38;19.57;;;9.07;;
4885;SDS011;2457;51.788;6.136;2024-03-08T02:58:07;15.17;;;9.70;;
4885;SDS011;2457;51.788;6.136;2024-03-08T03:00:37;17.57;;;10.23;;
4885;SDS011;2457;51.788;6.136;2024-03-08T03:03:05;13.97;;;9.40;;
4885;SDS011;2457;51.788;6.136;2024-03-08T03:05:32;14.47;;;9.53;;
4885;SDS011;2457;51.788;6.136;2024-03-08T03:08:03;14.30;;;9.50;;
4885;SDS011;2457;51.788;6.136;2024-03-08T03:10:32;12.87;;;8.23;;
4885;SDS011;2457;51.788;6.136;2024-03-08T03:12:59;15.60;;;8.90;;
4885;SDS011;2457;51.788;6.136;2024-03-08T03:15:26;15.70;;;9.80;;
4885;SDS011;2457;51.788;6.136;2024-03-08T03:17:53;17.53;;;10.10;;
4885;SDS011;2457;51.788;6.136;2024-03-08T03:20:21;16.40;;;9.27;;
4885;SDS011;2457;51.788;6.136;2024-03-08T03:22:53;17.40;;;10.30;;
4885;SDS011;2457;51.788;6.136;2024-03-08T03:25:22;15.53;;;9.83;;
4885;SDS011;2457;51.788;6.136;2024-03-08T03:27:54;16.00;;;10.30;;
4885;SDS011;2457;51.788;6.136;2024-03-08T03:30:23;16.17;;;9.97;;
4885;SDS011;2457;51.788;6.136;2024-03-08T03:32:52;15.43;;;10.60;;
4885;SDS011;2457;51.788;6.136;2024-03-08T03:35:20;16.90;;;9.90;;
4885;SDS011;2457;51.788;6.136;2024-03-08T03:37:48;17.47;;;9.93;;
4885;SDS011;2457;51.788;6.136;2024-03-08T03:40:20;14.30;;;7.60;;
4885;SDS011;2457;51.788;6.136;2024-03-08T03:42:49;17.87;;;9.77;;
4885;SDS011;2457;51.788;6.136;2024-03-08T03:45:16;14.87;;;9.43;;
4885;SDS011;2457;51.788;6.136;2024-03-08T03:47:45;14.77;;;9.20;;
4885;SDS011;2457;51.788;6.136;2024-03-08T03:50:13;15.80;;;10.13;;
4885;SDS011;2457;51.788;6.136;2024-03-08T03:52:40;16.83;;;9.70;;
4885;SDS011;2457;51.788;6.136;2024-03-08T03:55:08;13.30;;;9.30;;
4885;SDS011;2457;51.788;6.136;2024-03-08T03:57:37;16.80;;;10.83;;
4885;SDS011;2457;51.788;6.136;2024-03-08T04:00:05;22.00;;;10.87;;
4885;SDS011;2457;51.788;6.136;2024-03-08T04:02:32;14.33;;;8.97;;
4885;SDS011;2457;51.788;6.136;2024-03-08T04:04:59;17.17;;;9.83;;
4885;SDS011;2457;51.788;6.136;2024-03-08T04:07:27;14.23;;;9.43;;
4885;SDS011;2457;51.788;6.136;2024-03-08T04:09:54;14.70;;;9.73;;
4885;SDS011;2457;51.788;6.136;2024-03-08T04:12:21;16.10;;;9.73;;
4885;SDS011;2457;51.788;6.136;2024-03-08T04:14:49;14.53;;;9.93;;
4885;SDS011;2457;51.788;6.136;2024-03-08T04:17:16;18.73;;;9.60;;
4885;SDS011;2457;51.788;6.136;2024-03-08T04:19:44;18.27;;;10.03;;
4885;SDS011;2457;51.788;6.136;2024-03-08T04:22:11;13.90;;;9.40;;
4885;SDS011;2457;51.788;6.136;2024-03-08T04:24:39;16.73;;;9.87;;
4885;SDS011;2457;51.788;6.136;2024-03-08T04:27:07;17.00;;;9.40;;
4885;SDS011;2457;51.788;6.136;2024-03-08T04:29:35;17.20;;;10.10;;
4885;SDS011;2457;51.788;6.136;2024-03-08T04:32:03;18.87;;;10.77;;
4885;SDS011;2457;51.788;6.136;2024-03-08T04:34:31;14.87;;;9.83;;
4885;SDS011;2457;51.788;6.136;2024-03-08T04:36:58;18.07;;;10.60;;
4885;SDS011;2457;51.788;6.136;2024-03-08T04:39:25;15.83;;;10.13;;
4885;SDS011;2457;51.788;6.136;2024-03-08T04:41:59;17.80;;;10.60;;
4885;SDS011;2457;51.788;6.136;2024-03-08T04:44:23;15.87;;;10.23;;
4885;SDS011;2457;51.788;6.136;2024-03-08T04:46:52;20.50;;;10.30;;
4885;SDS011;2457;51.788;6.136;2024-03-08T04:49:19;16.10;;;9.93;;
4885;SDS011;2457;51.788;6.136;2024-03-08T04:51:48;19.03;;;11.17;;
4885;SDS011;2457;51.788;6.136;2024-03-08T04:54:15;16.37;;;10.03;;
4885;SDS011;2457;51.788;6.136;2024-03-08T04:56:42;19.67;;;10.90;;
4885;SDS011;2457;51.788;6.136;2024-03-08T04:59:09;17.70;;;10.67;;
4885;SDS011;2457;51.788;6.136;2024-03-08T05:01:37;20.73;;;11.57;;
4885;SDS011;2457;51.788;6.136;2024-03-08T05:04:04;16.17;;;9.90;;
4885;SDS011;2457;51.788;6.136;2024-03-08T05:06:31;16.80;;;10.27;;
4885;SDS011;2457;51.788;6.136;2024-03-08T05:09:00;19.50;;;10.70;;
4885;SDS011;2457;51.788;6.136;2024-03-08T05:11:27;19.63;;;11.70;;
4885;SDS011;2457;51.788;6.136;2024-03-08T05:13:54;15.23;;;10.73;;
4885;SDS011;2457;51.788;6.136;2024-03-08T05:16:21;18.17;;;10.57;;
4885;SDS011;2457;51.788;6.136;2024-03-08T05:18:49;19.73;;;11.50;;
4885;SDS011;2457;51.788;6.136;2024-03-08T05:21:17;16.67;;;10.60;;
4885;SDS011;2457;51.788;6.136;2024-03-08T05:23:46;16.30;;;9.87;;
4885;SDS011;2457;51.788;6.136;2024-03-08T05:26:13;17.10;;;10.30;;
4885;SDS011;2457;51.788;6.136;2024-03-08T05:28:41;22.20;;;10.53;;
4885;SDS011;2457;51.788;6.136;2024-03-08T05:31:08;22.10;;;10.57;;
4885;SDS011;2457;51.788;6.136;2024-03-08T05:33:35;16.00;;;10.60;;
4885;SDS011;2457;51.788;6.136;2024-03-08T05:36:03;19.13;;;10.90;;
4885;SDS011;2457;51.788;6.136;2024-03-08T05:38:30;16.53;;;10.03;;
4885;SDS011;2457;51.788;6.136;2024-03-08T05:40:57;17.97;;;10.13;;
4885;SDS011;2457;51.788;6.136;2024-03-08T05:43:24;17.77;;;11.80;;
4885;SDS011;2457;51.788;6.136;2024-03-08T05:45:52;16.30;;;9.57;;
4885;SDS011;2457;51.788;6.136;2024-03-08T05:48:19;17.13;;;10.57;;
4885;SDS011;2457;51.788;6.136;2024-03-08T05:50:46;22.00;;;11.37;;
4885;SDS011;2457;51.788;6.136;2024-03-08T05:53:13;18.17;;;10.83;;
4885;SDS011;2457;51.788;6.136;2024-03-08T05:55:41;20.17;;;10.70;;
4885;SDS011;2457;51.788;6.136;2024-03-08T05:58:08;18.90;;;11.97;;
4885;SDS011;2457;51.788;6.136;2024-03-08T06:00:37;17.43;;;11.10;;
4885;SDS011;2457;51.788;6.136;2024-03-08T06:03:04;20.90;;;11.60;;
4885;SDS011;2457;51.788;6.136;2024-03-08T06:05:32;19.37;;;11.00;;
4885;SDS011;2457;51.788;6.136;2024-03-08T06:07:59;20.13;;;10.67;;
4885;SDS011;2457;51.788;6.136;2024-03-08T06:10:27;20.87;;;10.47;;
4885;SDS011;2457;51.788;6.136;2024-03-08T06:12:54;21.97;;;11.37;;
4885;SDS011;2457;51.788;6.136;2024-03-08T06:15:21;22.73;;;10.57;;
4885;SDS011;2457;51.788;6.136;2024-03-08T06:17:48;16.27;;;10.17;;
4885;SDS011;2457;51.788;6.136;2024-03-08T06:20:15;19.07;;;11.13;;
4885;SDS011;2457;51.788;6.136;2024-03-08T06:22:43;17.50;;;10.17;;
4885;SDS011;2457;51.788;6.136;2024-03-08T06:25:11;20.10;;;11.00;;
4885;SDS011;2457;51.788;6.136;2024-03-08T06:27:42;20.67;;;11.03;;
4885;SDS011;2457;51.788;6.136;2024-03-08T06:30:09;18.80;;;12.07;;
4885;SDS011;2457;51.788;6.136;2024-03-08T06:32:37;21.40;;;12.00;;
4885;SDS011;2457;51.788;6.136;2024-03-08T06:35:04;18.17;;;10.73;;
4885;SDS011;2457;51.788;6.136;2024-03-08T06:37:33;18.83;;;11.10;;
4885;SDS011;2457;51.788;6.136;2024-03-08T06:40:01;17.73;;;11.13;;
4885;SDS011;2457;51.788;6.136;2024-03-08T06:42:29;19.33;;;11.77;;
4885;SDS011;2457;51.788;6.136;2024-03-08T06:44:58;20.70;;;12.33;;
4885;SDS011;2457;51.788;6.136;2024-03-08T06:47:27;19.37;;;11.43;;
4885;SDS011;2457;51.788;6.136;2024-03-08T06:49:54;20.80;;;11.17;;
4885;SDS011;2457;51.788;6.136;2024-03-08T06:52:22;19.80;;;11.67;;
4885;SDS011;2457;51.788;6.136;2024-03-08T06:54:49;19.57;;;11.83;;
4885;SDS011;2457;51.788;6.136;2024-03-08T06:57:18;17.63;;;11.73;;
4885;SDS011;2457;51.788;6.136;2024-03-08T06:59:48;22.60;;;11.30;;
4885;SDS011;2457;51.788;6.136;2024-03-08T07:02:15;16.70;;;10.10;;
4885;SDS011;2457;51.788;6.136;2024-03-08T07:04:42;17.30;;;11.70;;
4885;SDS011;2457;51.788;6.136;2024-03-08T07:07:10;15.97;;;10.20;;
4885;SDS011;2457;51.788;6.136;2024-03-08T07:09:37;19.83;;;11.30;;
4885;SDS011;2457;51.788;6.136;2024-03-08T07:12:04;16.87;;;11.00;;
4885;SDS011;2457;51.788;6.136;2024-03-08T07:14:31;18.20;;;10.10;;
4885;SDS011;2457;51.788;6.136;2024-03-08T07:16:59;17.10;;;11.27;;
4885;SDS011;2457;51.788;6.136;2024-03-08T07:19:26;15.80;;;10.40;;
4885;SDS011;2457;51.788;6.136;2024-03-08T07:21:53;21.83;;;11.80;;
4885;SDS011;2457;51.788;6.136;2024-03-08T07:24:21;18.83;;;11.43;;
4885;SDS011;2457;51.788;6.136;2024-03-08T07:26:53;20.47;;;11.20;;
4885;SDS011;2457;51.788;6.136;2024-03-08T07:29:22;17.33;;;10.73;;
4885;SDS011;2457;51.788;6.136;2024-03-08T07:31:49;20.00;;;11.03;;
4885;SDS011;2457;51.788;6.136;2024-03-08T07:34:24;16.90;;;10.50;;
4885;SDS011;2457;51.788;6.136;2024-03-08T07:36:51;20.97;;;11.83;;
4885;SDS011;2457;51.788;6.136;2024-03-08T07:39:18;23.70;;;12.70;;
4885;SDS011;2457;51.788;6.136;2024-03-08T07:41:45;18.83;;;10.57;;
4885;SDS011;2457;51.788;6.136;2024-03-08T07:44:14;20.33;;;10.53;;
4885;SDS011;2457;51.788;6.136;2024-03-08T07:46:41;19.00;;;11.40;;
4885;SDS011;2457;51.788;6.136;2024-03-08T07:49:09;27.03;;;12.40;;
4885;SDS011;2457;51.788;6.136;2024-03-08T07:51:37;22.87;;;13.87;;
4885;SDS011;2457;51.788;6.136;2024-03-08T07:54:05;19.80;;;11.20;;
4885;SDS011;2457;51.788;6.136;2024-03-08T07:56:33;19.97;;;11.60;;
4885;SDS011;2457;51.788;6.136;2024-03-08T07:59:02;17.37;;;10.97;;
4885;SDS011;2457;51.788;6.136;2024-03-08T08:01:32;18.70;;;11.10;;
4885;SDS011;2457;51.788;6.136;2024-03-08T08:04:02;21.73;;;11.07;;
4885;SDS011;2457;51.788;6.136;2024-03-08T08:06:30;23.10;;;11.97;;
4885;SDS011;2457;51.788;6.136;2024-03-08T08:08:59;19.60;;;11.50;;
4885;SDS011;2457;51.788;6.136;2024-03-08T08:11:27;17.00;;;10.30;;
4885;SDS011;2457;51.788;6.136;2024-03-08T08:13:55;20.20;;;11.53;;
4885;SDS011;2457;51.788;6.136;2024-03-08T08:16:25;18.00;;;11.30;;
4885;SDS011;2457;51.788;6.136;2024-03-08T08:18:52;22.07;;;12.60;;
4885;SDS011;2457;51.788;6.136;2024-03-08T08:21:20;18.87;;;11.60;;
4885;SDS011;2457;51.788;6.136;2024-03-08T08:23:48;16.40;;;9.57;;
4885;SDS011;2457;51.788;6.136;2024-03-08T08:26:15;18.97;;;10.30;;
4885;SDS011;2457;51.788;6.136;2024-03-08T08:28:43;19.67;;;10.97;;
4885;SDS011;2457;51.788;6.136;2024-03-08T08:31:12;21.27;;;12.03;;
4885;SDS011;2457;51.788;6.136;2024-03-08T08:33:39;23.77;;;11.37;;
4885;SDS011;2457;51.788;6.136;2024-03-08T08:36:07;18.60;;;12.53;;
4885;SDS011;2457;51.788;6.136;2024-03-08T08:38:34;18.67;;;11.33;;
4885;SDS011;2457;51.788;6.136;2024-03-08T08:41:01;19.10;;;11.10;;
4885;SDS011;2457;51.788;6.136;2024-03-08T08:43:29;21.80;;;11.90;;
4885;SDS011;2457;51.788;6.136;2024-03-08T08:45:56;24.87;;;10.97;;
4885;SDS011;2457;51.788;6.136;2024-03-08T08:48:23;23.20;;;13.07;;
4885;SDS011;2457;51.788;6.136;2024-03-08T08:50:51;19.80;;;10.40;;
4885;SDS011;2457;51.788;6.136;2024-03-08T08:53:18;27.53;;;12.30;;
4885;SDS011;2457;51.788;6.136;2024-03-08T08:55:45;17.93;;;10.17;;
4885;SDS011;2457;51.788;6.136;2024-03-08T08:58:13;21.43;;;11.23;;
4885;SDS011;2457;51.788;6.136;2024-03-08T09:00:40;16.93;;;10.53;;
4885;SDS011;2457;51.788;6.136;2024-03-08T09:03:08;21.40;;;11.87;;
4885;SDS011;2457;51.788;6.136;2024-03-08T09:05:35;19.60;;;10.67;;
4885;SDS011;2457;51.788;6.136;2024-03-08T09:08:03;18.63;;;10.27;;
4885;SDS011;2457;51.788;6.136;2024-03-08T09:10:31;18.47;;;11.10;;
4885;SDS011;2457;51.788;6.136;2024-03-08T09:13:00;18.27;;;10.00;;
4885;SDS011;2457;51.788;6.136;2024-03-08T09:15:29;17.87;;;9.57;;
4885;SDS011;2457;51.788;6.136;2024-03-08T09:17:56;21.40;;;11.80;;
4885;SDS011;2457;51.788;6.136;2024-03-08T09:20:23;18.73;;;11.17;;
4885;SDS011;2457;51.788;6.136;2024-03-08T09:22:51;28.50;;;12.53;;
4885;SDS011;2457;51.788;6.136;2024-03-08T09:25:18;22.20;;;11.00;;
4885;SDS011;2457;51.788;6.136;2024-03-08T09:27:45;21.83;;;11.60;;
4885;SDS011;2457;51.788;6.136;2024-03-08T09:30:13;19.70;;;11.60;;
4885;SDS011;2457;51.788;6.136;2024-03-08T09:32:41;20.27;;;11.13;;
4885;SDS011;2457;51.788;6.136;2024-03-08T09:35:09;15.57;;;9.00;;
4885;SDS011;2457;51.788;6.136;2024-03-08T09:37:37;17.33;;;9.73;;
4885;SDS011;2457;51.788;6.136;2024-03-08T09:40:04;23.20;;;11.20;;
4885;SDS011;2457;51.788;6.136;2024-03-08T09:42:33;18.87;;;10.47;;
4885;SDS011;2457;51.788;6.136;2024-03-08T09:45:02;21.10;;;12.97;;
4885;SDS011;2457;51.788;6.136;2024-03-08T09:47:30;17.90;;;9.80;;
4885;SDS011;2457;51.788;6.136;2024-03-08T09:50:00;19.90;;;11.03;;
4885;SDS011;2457;51.788;6.136;2024-03-08T09:52:27;19.27;;;10.90;;
4885;SDS011;2457;51.788;6.136;2024-03-08T09:54:57;18.40;;;9.40;;
4885;SDS011;2457;51.788;6.136;2024-03-08T09:57:24;17.10;;;10.47;;
4885;SDS011;2457;51.788;6.136;2024-03-08T09:59:52;19.13;;;11.27;;
4885;SDS011;2457;51.788;6.136;2024-03-08T10:02:19;17.80;;;9.80;;
4885;SDS011;2457;51.788;6.136;2024-03-08T10:04:47;15.60;;;7.97;;
4885;SDS011;2457;51.788;6.136;2024-03-08T10:07:14;25.80;;;11.40;;
4885;SDS011;2457;51.788;6.136;2024-03-08T10:09:41;21.53;;;11.23;;
4885;SDS011;2457;51.788;6.136;2024-03-08T10:12:10;22.23;;;10.93;;
4885;SDS011;2457;51.788;6.136;2024-03-08T10:14:38;16.93;;;10.63;;
4885;SDS011;2457;51.788;6.136;2024-03-08T10:17:07;15.57;;;9.97;;
4885;SDS011;2457;51.788;6.136;2024-03-08T10:19:34;14.80;;;9.27;;
4885;SDS011;2457;51.788;6.136;2024-03-08T10:22:02;21.87;;;10.83;;
4885;SDS011;2457;51.788;6.136;2024-03-08T10:24:31;15.50;;;8.90;;
4885;SDS011;2457;51.788;6.136;2024-03-08T10:27:00;23.83;;;9.40;;
4885;SDS011;2457;51.788;6.136;2024-03-08T10:29:32;19.47;;;9.30;;
4885;SDS011;2457;51.788;6.136;2024-03-08T10:31:59;19.73;;;9.87;;
4885;SDS011;2457;51.788;6.136;2024-03-08T10:34:26;15.80;;;9.93;;
4885;SDS011;2457;51.788;6.136;2024-03-08T10:36:56;17.20;;;10.20;;
4885;SDS011;2457;51.788;6.136;2024-03-08T10:39:24;17.70;;;9.93;;
4885;SDS011;2457;51.788;6.136;2024-03-08T10:41:56;16.93;;;9.13;;
4885;SDS011;2457;51.788;6.136;2024-03-08T10:44:32;20.57;;;10.90;;
4885;SDS011;2457;51.788;6.136;2024-03-08T10:46:57;16.87;;;10.40;;
4885;SDS011;2457;51.788;6.136;2024-03-08T10:49:25;17.53;;;8.97;;
4885;SDS011;2457;51.788;6.136;2024-03-08T10:51:50;9.97;;;5.97;;
4885;SDS011;2457;51.788;6.136;2024-03-08T10:54:18;18.57;;;9.83;;
4885;SDS011;2457;51.788;6.136;2024-03-08T10:56:47;17.43;;;10.13;;
4885;SDS011;2457;51.788;6.136;2024-03-08T10:59:17;17.00;;;9.50;;
4885;SDS011;2457;51.788;6.136;2024-03-08T11:01:45;16.13;;;8.07;;
4885;SDS011;2457;51.788;6.136;2024-03-08T11:04:12;17.53;;;9.97;;
4885;SDS011;2457;51.788;6.136;2024-03-08T11:06:42;19.57;;;9.77;;
4885;SDS011;2457;51.788;6.136;2024-03-08T11:09:27;19.20;;;9.60;;
4885;SDS011;2457;51.788;6.136;2024-03-08T11:11:42;21.80;;;10.27;;
4885;SDS011;2457;51.788;6.136;2024-03-08T11:14:42;17.03;;;9.00;;
4885;SDS011;2457;51.788;6.136;2024-03-08T11:16:40;14.83;;;7.60;;
4885;SDS011;2457;51.788;6.136;2024-03-08T11:21:37;13.90;;;6.43;;
4885;SDS011;2457;51.788;6.136;2024-03-08T11:24:08;17.63;;;9.50;;
4885;SDS011;2457;51.788;6.136;2024-03-08T11:26:38;16.50;;;9.07;;
4885;SDS011;2457;51.788;6.136;2024-03-08T11:31:51;17.30;;;9.20;;
4885;SDS011;2457;51.788;6.136;2024-03-08T11:34:19;15.93;;;9.20;;
4885;SDS011;2457;51.788;6.136;2024-03-08T11:36:47;16.10;;;7.80;;
4885;SDS011;2457;51.788;6.136;2024-03-08T11:39:16;20.70;;;10.50;;
4885;SDS011;2457;51.788;6.136;2024-03-08T11:41:43;16.30;;;8.33;;
4885;SDS011;2457;51.788;6.136;2024-03-08T11:44:12;21.60;;;7.47;;
4885;SDS011;2457;51.788;6.136;2024-03-08T11:46:41;11.33;;;5.90;;
4885;SDS011;2457;51.788;6.136;2024-03-08T11:49:10;15.93;;;8.03;;
4885;SDS011;2457;51.788;6.136;2024-03-08T11:51:38;13.47;;;8.00;;
4885;SDS011;2457;51.788;6.136;2024-03-08T11:54:05;13.80;;;7.50;;
4885;SDS011;2457;51.788;6.136;2024-03-08T11:56:33;19.13;;;8.70;;
4885;SDS011;2457;51.788;6.136;2024-03-08T11:59:00;15.53;;;7.77;;
4885;SDS011;2457;51.788;6.136;2024-03-08T12:01:28;18.50;;;9.93;;
4885;SDS011;2457;51.788;6.136;2024-03-08T12:03:55;14.13;;;8.03;;
4885;SDS011;2457;51.788;6.136;2024-03-08T12:06:27;15.57;;;7.80;;
4885;SDS011;2457;51.788;6.136;2024-03-08T12:08:55;6.57;;;2.40;;
4885;SDS011;2457;51.788;6.136;2024-03-08T12:11:22;20.10;;;11.20;;
4885;SDS011;2457;51.788;6.136;2024-03-08T12:13:50;13.20;;;7.73;;
4885;SDS011;2457;51.788;6.136;2024-03-08T12:16:18;16.63;;;8.73;;
4885;SDS011;2457;51.788;6.136;2024-03-08T12:18:45;14.70;;;8.30;;
4885;SDS011;2457;51.788;6.136;2024-03-08T12:21:13;15.10;;;8.67;;
4885;SDS011;2457;51.788;6.136;2024-03-08T12:23:42;14.77;;;7.17;;
4885;SDS011;2457;51.788;6.136;2024-03-08T12:26:13;15.70;;;8.37;;
4885;SDS011;2457;51.788;6.136;2024-03-08T12:28:42;10.80;;;4.90;;
4885;SDS011;2457;51.788;6.136;2024-03-08T12:31:11;15.13;;;8.83;;
4885;SDS011;2457;51.788;6.136;2024-03-08T12:33:51;16.57;;;8.47;;
4885;SDS011;2457;51.788;6.136;2024-03-08T12:36:19;10.43;;;5.63;;
4885;SDS011;2457;51.788;6.136;2024-03-08T12:38:46;11.77;;;6.30;;
4885;SDS011;2457;51.788;6.136;2024-03-08T12:41:17;14.23;;;8.27;;
4885;SDS011;2457;51.788;6.136;2024-03-08T12:43:45;16.03;;;7.90;;
4885;SDS011;2457;51.788;6.136;2024-03-08T12:46:15;19.83;;;9.70;;
4885;SDS011;2457;51.788;6.136;2024-03-08T12:48:42;18.53;;;8.70;;
4885;SDS011;2457;51.788;6.136;2024-03-08T12:51:12;12.90;;;8.00;;
4885;SDS011;2457;51.788;6.136;2024-03-08T12:53:39;15.40;;;8.67;;
4885;SDS011;2457;51.788;6.136;2024-03-08T12:56:06;11.63;;;5.67;;
4885;SDS011;2457;51.788;6.136;2024-03-08T12:58:35;16.07;;;8.80;;
4885;SDS011;2457;51.788;6.136;2024-03-08T13:01:03;13.90;;;6.07;;
4885;SDS011;2457;51.788;6.136;2024-03-08T13:03:36;12.23;;;7.73;;
4885;SDS011;2457;51.788;6.136;2024-03-08T13:06:04;10.50;;;3.90;;
4885;SDS011;2457;51.788;6.136;2024-03-08T13:08:40;23.90;;;7.67;;
4885;SDS011;2457;51.788;6.136;2024-03-08T13:11:08;15.93;;;9.47;;
4885;SDS011;2457;51.788;6.136;2024-03-08T13:13:37;14.17;;;7.67;;
4885;SDS011;2457;51.788;6.136;2024-03-08T13:16:06;16.60;;;8.57;;
4885;SDS011;2457;51.788;6.136;2024-03-08T13:18:37;17.83;;;7.73;;
4885;SDS011;2457;51.788;6.136;2024-03-08T13:21:04;17.23;;;8.27;;
4885;SDS011;2457;51.788;6.136;2024-03-08T13:23:33;18.53;;;8.70;;
4885;SDS011;2457;51.788;6.136;2024-03-08T13:26:02;17.97;;;9.50;;
4885;SDS011;2457;51.788;6.136;2024-03-08T13:28:30;13.07;;;7.37;;
4885;SDS011;2457;51.788;6.136;2024-03-08T13:30:59;14.30;;;7.97;;
4885;SDS011;2457;51.788;6.136;2024-03-08T13:33:27;12.80;;;6.57;;
4885;SDS011;2457;51.788;6.136;2024-03-08T13:35:55;16.27;;;9.50;;
4885;SDS011;2457;51.788;6.136;2024-03-08T13:38:23;13.97;;;7.93;;
4885;SDS011;2457;51.788;6.136;2024-03-08T13:40:50;17.63;;;9.80;;
4885;SDS011;2457;51.788;6.136;2024-03-08T13:43:18;14.77;;;8.73;;
4885;SDS011;2457;51.788;6.136;2024-03-08T13:45:45;13.80;;;7.63;;
4885;SDS011;2457;51.788;6.136;2024-03-08T13:48:12;14.33;;;8.07;;
4885;SDS011;2457;51.788;6.136;2024-03-08T13:50:40;17.07;;;9.80;;
4885;SDS011;2457;51.788;6.136;2024-03-08T13:53:07;17.33;;;9.07;;
4885;SDS011;2457;51.788;6.136;2024-03-08T13:55:36;14.37;;;8.27;;
4885;SDS011;2457;51.788;6.136;2024-03-08T13:58:03;13.70;;;6.57;;
4885;SDS011;2457;51.788;6.136;2024-03-08T14:00:30;11.47;;;5.20;;
4885;SDS011;2457;51.788;6.136;2024-03-08T14:02:59;10.03;;;6.37;;
4885;SDS011;2457;51.788;6.136;2024-03-08T14:05:27;16.47;;;8.23;;
4885;SDS011;2457;51.788;6.136;2024-03-08T14:07:54;13.83;;;8.50;;
4885;SDS011;2457;51.788;6.136;2024-03-08T14:10:21;17.00;;;9.50;;
4885;SDS011;2457;51.788;6.136;2024-03-08T14:12:49;15.63;;;9.30;;
4885;SDS011;2457;51.788;6.136;2024-03-08T14:15:16;13.73;;;8.97;;
4885;SDS011;2457;51.788;6.136;2024-03-08T14:17:44;19.10;;;9.40;;
4885;SDS011;2457;51.788;6.136;2024-03-08T14:20:12;14.40;;;8.20;;
4885;SDS011;2457;51.788;6.136;2024-03-08T14:22:40;19.43;;;9.37;;
4885;SDS011;2457;51.788;6.136;2024-03-08T14:25:07;14.73;;;8.23;;
4885;SDS011;2457;51.788;6.136;2024-03-08T14:27:36;16.00;;;8.67;;
4885;SDS011;2457;51.788;6.136;2024-03-08T14:30:03;14.93;;;8.70;;
4885;SDS011;2457;51.788;6.136;2024-03-08T14:32:33;15.60;;;8.80;;
4885;SDS011;2457;51.788;6.136;2024-03-08T14:35:00;18.80;;;10.40;;
4885;SDS011;2457;51.788;6.136;2024-03-08T14:37:27;19.60;;;8.93;;
4885;SDS011;2457;51.788;6.136;2024-03-08T14:39:55;17.33;;;9.30;;
4885;SDS011;2457;51.788;6.136;2024-03-08T14:42:22;15.90;;;9.20;;
4885;SDS011;2457;51.788;6.136;2024-03-08T14:44:50;16.90;;;9.73;;
4885;SDS011;2457;51.788;6.136;2024-03-08T14:47:18;16.20;;;9.67;;
4885;SDS011;2457;51.788;6.136;2024-03-08T14:49:45;20.83;;;9.33;;
4885;SDS011;2457;51.788;6.136;2024-03-08T14:52:14;16.50;;;7.70;;
4885;SDS011;2457;51.788;6.136;2024-03-08T14:54:54;16.77;;;8.43;;
4885;SDS011;2457;51.788;6.136;2024-03-08T14:57:22;18.03;;;8.80;;
4885;SDS011;2457;51.788;6.136;2024-03-08T14:59:50;14.53;;;10.00;;
4885;SDS011;2457;51.788;6.136;2024-03-08T15:02:17;15.30;;;8.60;;
4885;SDS011;2457;51.788;6.136;2024-03-08T15:04:46;15.53;;;9.57;;